Portada
METAR-TAF:

METAR-TAF

Aeropuertos :

Aeropuerto Internacional Jinnah

Karachi, Pakistán

latitud: 24-54N, longitud: 067-08E, altitud: 21 m

Observación

El informe se hizo hace 14 horas y 46 minutos, a las 05:28 UTC
Viento 12 kt del suroeste
Temperatura 31°C
Humedad 55%
Presión 1002 hPa
Visibilidad: 5000 m
Nubes dispersas a una altura de 2000 ft
Cielo nuboso a una altura de 3000 ft
calima

METAR: OPKC 210528Z 23012KT 5000 HZ SCT020 BKN030 31/21 Q1002 NOSIG

Hora: 01:14 (20:14 UTC)

Pronóstico

El informe se hizo hace 16 horas y 44 minutos, a las 03:30 UTC
Pronóstico válido del 21 a las 06 UTC al 21 a las 15 UTC
Viento 8 kt del oeste-suroeste con ráfagas de 18 kt
Visibilidad: 6000 m
Nubes dispersas a una altura de 2000 ft
Cielo nuboso a una altura de 3000 ft

TAF: OPKC 210330Z 2106/2115 25008G18KT 6000 SCT020 BKN030

Observaciones y pronósticos meteorológicos de más de 4000 aeropuertos (mensajes METAR y TAF).

Los puntos amarillos y rojos representan las estaciones disponibles.

Ponga el ratón en el punto deseado para ver el nombre de la estación.

Haga clic para ver las observaciones y los pronósticos meteorológicos.

Para cambiar el mapa : haga clic en los botones verdes con una cruz de color negro para hacer un zoom, en el botón verde con un guión para alejar o en las flechas verdes para mapas adyacentes.


METAR-TAF: